Portada
METAR-TAF:

METAR-TAF

Aeropuertos :

Mendoza, Argentina

Aeropuerto Internacional Gobernador Francisco Gabrielli

latitud: 32-50S, longitud: 068-47W, altitud: 705 m

Observación

El informe se hizo hace 56 minutos, a las 21:00 UTC
Viento 10 kt del norte
Temperatura 26°C
Humedad 17%
Presión 1012 hPa
Visibilidad 10 km o más
sin nubes por debajo de 1500 m y sin presencia de cumulonimbus.

METAR: SAME 232100Z 36010KT CAVOK 26/M01 Q1012

Hora: 18:56 (21:56 UTC)

Pronóstico

El informe se hizo hace 4 horas y 56 minutos, a las 17:00 UTC
Pronóstico válido del 23 a las 18 UTC al 24 a las 18 UTC
Viento 5 kt del noreste
Visibilidad 10 km o más
sin nubes por debajo de 1500 m y sin presencia de cumulonimbus.

TAF: SAME 231700Z 2318/2418 05005KT CAVOK TX28/2320Z TN11/2410Z

Observaciones y pronósticos meteorológicos de más de 4000 aeropuertos (mensajes METAR y TAF).

Los puntos amarillos y rojos representan las estaciones disponibles.

Ponga el ratón en el punto deseado para ver el nombre de la estación.

Haga clic para ver las observaciones y los pronósticos meteorológicos.

Para cambiar el mapa : haga clic en los botones verdes con una cruz de color negro para hacer un zoom, en el botón verde con un guión para alejar o en las flechas verdes para mapas adyacentes.


METAR-TAF: